sensor_id;sensor_type;location;lat;lon;timestamp;temperature;humidity
6581;DHT22;3324;50.796;7.228;2022-09-12T00:00:47;14.80;99.90
6581;DHT22;3324;50.796;7.228;2022-09-12T00:03:13;14.90;99.90
6581;DHT22;3324;50.796;7.228;2022-09-12T00:05:46;14.90;99.90
6581;DHT22;3324;50.796;7.228;2022-09-12T00:08:12;14.80;99.90
6581;DHT22;3324;50.796;7.228;2022-09-12T00:10:42;14.70;99.90
6581;DHT22;3324;50.796;7.228;2022-09-12T00:13:09;14.70;99.90
6581;DHT22;3324;50.796;7.228;2022-09-12T00:15:39;14.70;99.90
6581;DHT22;3324;50.796;7.228;2022-09-12T00:18:07;14.70;99.90
6581;DHT22;3324;50.796;7.228;2022-09-12T00:20:32;14.60;99.90
6581;DHT22;3324;50.796;7.228;2022-09-12T00:22:58;14.50;99.90
6581;DHT22;3324;50.796;7.228;2022-09-12T00:25:24;14.50;99.90
6581;DHT22;3324;50.796;7.228;2022-09-12T00:27:49;14.50;99.90
6581;DHT22;3324;50.796;7.228;2022-09-12T00:30:15;14.40;99.90
6581;DHT22;3324;50.796;7.228;2022-09-12T00:32:40;14.50;99.90
6581;DHT22;3324;50.796;7.228;2022-09-12T00:35:06;14.40;99.90
6581;DHT22;3324;50.796;7.228;2022-09-12T00:37:33;14.50;99.90
6581;DHT22;3324;50.796;7.228;2022-09-12T00:39:59;14.50;99.90
6581;DHT22;3324;50.796;7.228;2022-09-12T00:42:24;14.40;99.90
6581;DHT22;3324;50.796;7.228;2022-09-12T00:44:51;14.50;99.90
6581;DHT22;3324;50.796;7.228;2022-09-12T00:50:07;14.40;99.90
6581;DHT22;3324;50.796;7.228;2022-09-12T00:52:51;14.40;99.90
6581;DHT22;3324;50.796;7.228;2022-09-12T00:55:23;14.40;99.90
6581;DHT22;3324;50.796;7.228;2022-09-12T00:57:53;14.30;99.90
6581;DHT22;3324;50.796;7.228;2022-09-12T01:00:22;14.40;99.90
6581;DHT22;3324;50.796;7.228;2022-09-12T01:02:52;14.40;99.90
6581;DHT22;3324;50.796;7.228;2022-09-12T01:05:19;14.40;99.90
6581;DHT22;3324;50.796;7.228;2022-09-12T01:07:45;14.40;99.90
6581;DHT22;3324;50.796;7.228;2022-09-12T01:10:13;14.40;99.90
6581;DHT22;3324;50.796;7.228;2022-09-12T01:12:40;14.30;99.90
6581;DHT22;3324;50.796;7.228;2022-09-12T01:15:06;14.30;99.90
6581;DHT22;3324;50.796;7.228;2022-09-12T01:29:34;14.00;99.90
6581;DHT22;3324;50.796;7.228;2022-09-12T01:35:10;14.00;99.90
6581;DHT22;3324;50.796;7.228;2022-09-12T01:40:32;14.00;99.90
6581;DHT22;3324;50.796;7.228;2022-09-12T01:45:59;14.00;99.90
6581;DHT22;3324;50.796;7.228;2022-09-12T01:48:32;14.00;99.90
6581;DHT22;3324;50.796;7.228;2022-09-12T01:51:17;14.10;99.90
6581;DHT22;3324;50.796;7.228;2022-09-12T01:53:49;14.00;99.90
6581;DHT22;3324;50.796;7.228;2022-09-12T01:56:26;14.00;99.90
6581;DHT22;3324;50.796;7.228;2022-09-12T01:59:32;14.00;99.90
6581;DHT22;3324;50.796;7.228;2022-09-12T02:02:00;14.00;99.90
6581;DHT22;3324;50.796;7.228;2022-09-12T02:05:07;14.00;99.90
6581;DHT22;3324;50.796;7.228;2022-09-12T02:07:42;13.90;99.90
6581;DHT22;3324;50.796;7.228;2022-09-12T02:10:12;14.00;99.90
6581;DHT22;3324;50.796;7.228;2022-09-12T02:12:59;14.00;99.90
6581;DHT22;3324;50.796;7.228;2022-09-12T02:15:31;13.90;99.90
6581;DHT22;3324;50.796;7.228;2022-09-12T02:17:59;13.90;99.90
6581;DHT22;3324;50.796;7.228;2022-09-12T02:20:31;13.90;99.90
6581;DHT22;3324;50.796;7.228;2022-09-12T02:23:00;13.90;99.90
6581;DHT22;3324;50.796;7.228;2022-09-12T02:25:28;13.80;99.90
6581;DHT22;3324;50.796;7.228;2022-09-12T02:28:02;13.80;99.90
6581;DHT22;3324;50.796;7.228;2022-09-12T02:30:40;13.80;99.90
6581;DHT22;3324;50.796;7.228;2022-09-12T02:33:33;13.70;99.90
6581;DHT22;3324;50.796;7.228;2022-09-12T02:36:12;13.80;99.90
6581;DHT22;3324;50.796;7.228;2022-09-12T02:38:43;13.70;99.90
6581;DHT22;3324;50.796;7.228;2022-09-12T02:41:11;13.70;99.90
6581;DHT22;3324;50.796;7.228;2022-09-12T02:43:38;13.70;99.90
6581;DHT22;3324;50.796;7.228;2022-09-12T02:46:07;13.70;99.90
6581;DHT22;3324;50.796;7.228;2022-09-12T02:48:37;13.70;99.90
6581;DHT22;3324;50.796;7.228;2022-09-12T02:51:05;13.70;99.90
6581;DHT22;3324;50.796;7.228;2022-09-12T02:53:31;13.70;99.90
6581;DHT22;3324;50.796;7.228;2022-09-12T02:55:58;13.70;99.90
6581;DHT22;3324;50.796;7.228;2022-09-12T02:58:27;13.70;99.90
6581;DHT22;3324;50.796;7.228;2022-09-12T03:09:38;13.60;99.90
6581;DHT22;3324;50.796;7.228;2022-09-12T03:15:04;13.60;99.90
6581;DHT22;3324;50.796;7.228;2022-09-12T03:20:23;13.50;99.90
6581;DHT22;3324;50.796;7.228;2022-09-12T03:22:56;13.50;99.90
6581;DHT22;3324;50.796;7.228;2022-09-12T03:25:27;13.50;99.90
6581;DHT22;3324;50.796;7.228;2022-09-12T03:28:06;13.50;99.90
6581;DHT22;3324;50.796;7.228;2022-09-12T03:30:40;13.50;99.90
6581;DHT22;3324;50.796;7.228;2022-09-12T03:33:11;13.50;99.90
6581;DHT22;3324;50.796;7.228;2022-09-12T03:35:37;13.50;99.90
6581;DHT22;3324;50.796;7.228;2022-09-12T03:38:03;13.40;99.90
6581;DHT22;3324;50.796;7.228;2022-09-12T03:40:29;13.40;99.90
6581;DHT22;3324;50.796;7.228;2022-09-12T03:42:55;13.30;99.90
6581;DHT22;3324;50.796;7.228;2022-09-12T03:45:20;13.40;99.90
6581;DHT22;3324;50.796;7.228;2022-09-12T03:47:46;13.30;99.90
6581;DHT22;3324;50.796;7.228;2022-09-12T03:50:12;13.40;99.90
6581;DHT22;3324;50.796;7.228;2022-09-12T03:52:37;13.40;99.90
6581;DHT22;3324;50.796;7.228;2022-09-12T03:55:03;13.40;99.90
6581;DHT22;3324;50.796;7.228;2022-09-12T03:57:29;13.30;99.90
6581;DHT22;3324;50.796;7.228;2022-09-12T03:59:55;13.30;99.90
6581;DHT22;3324;50.796;7.228;2022-09-12T04:02:20;13.30;99.90
6581;DHT22;3324;50.796;7.228;2022-09-12T04:04:46;13.30;99.90
6581;DHT22;3324;50.796;7.228;2022-09-12T04:07:13;13.30;99.90
6581;DHT22;3324;50.796;7.228;2022-09-12T04:09:39;13.30;99.90
6581;DHT22;3324;50.796;7.228;2022-09-12T04:12:05;13.30;99.90
6581;DHT22;3324;50.796;7.228;2022-09-12T04:14:32;13.20;99.90
6581;DHT22;3324;50.796;7.228;2022-09-12T04:16:58;13.30;99.90
6581;DHT22;3324;50.796;7.228;2022-09-12T04:19:25;13.30;99.90
6581;DHT22;3324;50.796;7.228;2022-09-12T04:21:50;13.30;99.90
6581;DHT22;3324;50.796;7.228;2022-09-12T04:24:16;13.30;99.90
6581;DHT22;3324;50.796;7.228;2022-09-12T04:26:42;13.30;99.90
6581;DHT22;3324;50.796;7.228;2022-09-12T04:29:10;13.30;99.90
6581;DHT22;3324;50.796;7.228;2022-09-12T04:31:36;13.20;99.90
6581;DHT22;3324;50.796;7.228;2022-09-12T04:34:03;13.20;99.90
6581;DHT22;3324;50.796;7.228;2022-09-12T04:36:30;13.30;99.90
6581;DHT22;3324;50.796;7.228;2022-09-12T04:38:56;13.30;99.90
6581;DHT22;3324;50.796;7.228;2022-09-12T04:41:28;13.20;99.90
6581;DHT22;3324;50.796;7.228;2022-09-12T04:43:58;13.20;99.90
6581;DHT22;3324;50.796;7.228;2022-09-12T04:46:33;13.20;99.90
6581;DHT22;3324;50.796;7.228;2022-09-12T04:48:58;13.20;99.90
6581;DHT22;3324;50.796;7.228;2022-09-12T04:51:29;13.20;99.90
6581;DHT22;3324;50.796;7.228;2022-09-12T04:53:58;13.10;99.90
6581;DHT22;3324;50.796;7.228;2022-09-12T04:56:25;13.10;99.90
6581;DHT22;3324;50.796;7.228;2022-09-12T04:58:51;13.10;99.90
6581;DHT22;3324;50.796;7.228;2022-09-12T05:01:18;13.10;99.90
6581;DHT22;3324;50.796;7.228;2022-09-12T05:03:45;13.10;99.90
6581;DHT22;3324;50.796;7.228;2022-09-12T05:06:18;13.20;99.90
6581;DHT22;3324;50.796;7.228;2022-09-12T05:08:44;13.10;99.90
6581;DHT22;3324;50.796;7.228;2022-09-12T05:11:16;13.20;99.90
6581;DHT22;3324;50.796;7.228;2022-09-12T05:13:41;13.10;99.90
6581;DHT22;3324;50.796;7.228;2022-09-12T05:16:09;13.20;99.90
6581;DHT22;3324;50.796;7.228;2022-09-12T05:18:36;13.20;99.90
6581;DHT22;3324;50.796;7.228;2022-09-12T05:21:05;13.20;99.90
6581;DHT22;3324;50.796;7.228;2022-09-12T05:23:31;13.10;99.90
6581;DHT22;3324;50.796;7.228;2022-09-12T05:25:57;13.10;99.90
6581;DHT22;3324;50.796;7.228;2022-09-12T05:28:27;13.10;99.90
6581;DHT22;3324;50.796;7.228;2022-09-12T05:33:34;13.10;99.90
6581;DHT22;3324;50.796;7.228;2022-09-12T05:36:01;13.10;99.90
6581;DHT22;3324;50.796;7.228;2022-09-12T05:38:26;13.20;99.90
6581;DHT22;3324;50.796;7.228;2022-09-12T05:41:04;13.20;99.90
6581;DHT22;3324;50.796;7.228;2022-09-12T05:43:31;13.20;99.90
6581;DHT22;3324;50.796;7.228;2022-09-12T05:46:01;13.30;99.90
6581;DHT22;3324;50.796;7.228;2022-09-12T05:48:27;13.30;99.90
6581;DHT22;3324;50.796;7.228;2022-09-12T05:51:05;13.40;99.90
6581;DHT22;3324;50.796;7.228;2022-09-12T05:53:37;13.50;99.90
6581;DHT22;3324;50.796;7.228;2022-09-12T05:56:17;13.50;99.90
6581;DHT22;3324;50.796;7.228;2022-09-12T05:58:46;13.60;99.90
6581;DHT22;3324;50.796;7.228;2022-09-12T06:01:16;13.70;99.90
6581;DHT22;3324;50.796;7.228;2022-09-12T06:03:47;13.70;99.90
6581;DHT22;3324;50.796;7.228;2022-09-12T06:06:14;13.80;99.90
6581;DHT22;3324;50.796;7.228;2022-09-12T06:08:41;13.80;99.90
6581;DHT22;3324;50.796;7.228;2022-09-12T06:11:09;13.90;99.90
6581;DHT22;3324;50.796;7.228;2022-09-12T06:13:36;14.00;99.90
6581;DHT22;3324;50.796;7.228;2022-09-12T06:16:04;14.10;99.90
6581;DHT22;3324;50.796;7.228;2022-09-12T06:18:30;14.20;99.90
6581;DHT22;3324;50.796;7.228;2022-09-12T06:20:55;14.20;99.90
6581;DHT22;3324;50.796;7.228;2022-09-12T06:23:21;14.20;99.90
6581;DHT22;3324;50.796;7.228;2022-09-12T06:25:47;14.30;99.90
6581;DHT22;3324;50.796;7.228;2022-09-12T06:28:16;14.30;99.90
6581;DHT22;3324;50.796;7.228;2022-09-12T06:30:42;14.30;99.90
6581;DHT22;3324;50.796;7.228;2022-09-12T06:33:07;14.40;99.90
6581;DHT22;3324;50.796;7.228;2022-09-12T06:35:36;14.40;99.90
6581;DHT22;3324;50.796;7.228;2022-09-12T06:38:03;14.50;99.90
6581;DHT22;3324;50.796;7.228;2022-09-12T06:40:29;14.60;99.90
6581;DHT22;3324;50.796;7.228;2022-09-12T06:42:55;14.60;99.90
6581;DHT22;3324;50.796;7.228;2022-09-12T06:45:21;14.70;99.90
6581;DHT22;3324;50.796;7.228;2022-09-12T06:47:47;14.80;99.90
6581;DHT22;3324;50.796;7.228;2022-09-12T06:50:13;14.80;99.90
6581;DHT22;3324;50.796;7.228;2022-09-12T06:52:38;14.80;99.90
6581;DHT22;3324;50.796;7.228;2022-09-12T06:55:04;14.90;99.90
6581;DHT22;3324;50.796;7.228;2022-09-12T06:57:30;15.00;99.90
6581;DHT22;3324;50.796;7.228;2022-09-12T06:59:57;15.00;99.90
6581;DHT22;3324;50.796;7.228;2022-09-12T07:02:23;15.10;99.90
6581;DHT22;3324;50.796;7.228;2022-09-12T07:04:50;15.20;99.90
6581;DHT22;3324;50.796;7.228;2022-09-12T07:07:16;15.30;99.90
6581;DHT22;3324;50.796;7.228;2022-09-12T07:09:42;15.30;99.90
6581;DHT22;3324;50.796;7.228;2022-09-12T07:12:07;15.30;99.90
6581;DHT22;3324;50.796;7.228;2022-09-12T07:14:33;15.40;99.90
6581;DHT22;3324;50.796;7.228;2022-09-12T07:16:59;15.50;99.90
6581;DHT22;3324;50.796;7.228;2022-09-12T07:19:24;15.50;99.90
6581;DHT22;3324;50.796;7.228;2022-09-12T07:21:50;15.60;99.90
6581;DHT22;3324;50.796;7.228;2022-09-12T07:24:15;15.70;99.90
6581;DHT22;3324;50.796;7.228;2022-09-12T07:26:41;15.80;99.90
6581;DHT22;3324;50.796;7.228;2022-09-12T07:29:12;15.90;99.90
6581;DHT22;3324;50.796;7.228;2022-09-12T07:31:37;16.00;99.90
6581;DHT22;3324;50.796;7.228;2022-09-12T07:34:06;16.10;99.90
6581;DHT22;3324;50.796;7.228;2022-09-12T07:36:31;16.10;99.90
6581;DHT22;3324;50.796;7.228;2022-09-12T07:38:57;16.20;99.90
6581;DHT22;3324;50.796;7.228;2022-09-12T07:41:25;16.30;99.90
6581;DHT22;3324;50.796;7.228;2022-09-12T07:43:53;16.40;99.90
6581;DHT22;3324;50.796;7.228;2022-09-12T07:46:19;16.40;99.90
6581;DHT22;3324;50.796;7.228;2022-09-12T07:48:54;16.50;99.90
6581;DHT22;3324;50.796;7.228;2022-09-12T07:51:20;16.50;99.90
6581;DHT22;3324;50.796;7.228;2022-09-12T07:53:46;16.50;99.90
6581;DHT22;3324;50.796;7.228;2022-09-12T07:56:12;16.60;99.90
6581;DHT22;3324;50.796;7.228;2022-09-12T07:58:39;16.70;99.90
6581;DHT22;3324;50.796;7.228;2022-09-12T08:01:17;16.80;99.90
6581;DHT22;3324;50.796;7.228;2022-09-12T08:03:44;16.90;99.90
6581;DHT22;3324;50.796;7.228;2022-09-12T08:06:13;17.10;99.90
6581;DHT22;3324;50.796;7.228;2022-09-12T08:08:39;17.20;99.90
6581;DHT22;3324;50.796;7.228;2022-09-12T08:11:12;17.40;99.90
6581;DHT22;3324;50.796;7.228;2022-09-12T08:13:40;17.50;99.90
6581;DHT22;3324;50.796;7.228;2022-09-12T08:16:09;17.60;99.90
6581;DHT22;3324;50.796;7.228;2022-09-12T08:18:36;17.70;99.90
6581;DHT22;3324;50.796;7.228;2022-09-12T08:21:07;17.70;99.90
6581;DHT22;3324;50.796;7.228;2022-09-12T08:23:34;17.90;99.90
6581;DHT22;3324;50.796;7.228;2022-09-12T08:26:01;18.00;99.90
6581;DHT22;3324;50.796;7.228;2022-09-12T08:28:31;18.10;99.90
6581;DHT22;3324;50.796;7.228;2022-09-12T08:31:05;18.20;99.90
6581;DHT22;3324;50.796;7.228;2022-09-12T08:33:31;18.30;99.90
6581;DHT22;3324;50.796;7.228;2022-09-12T08:36:15;18.40;99.90
6581;DHT22;3324;50.796;7.228;2022-09-12T08:38:43;18.50;99.90
6581;DHT22;3324;50.796;7.228;2022-09-12T08:43:58;18.80;99.90
6581;DHT22;3324;50.796;7.228;2022-09-12T08:52:14;19.10;99.90
6581;DHT22;3324;50.796;7.228;2022-09-12T08:54:43;19.20;99.90
6581;DHT22;3324;50.796;7.228;2022-09-12T08:57:14;19.20;99.90
6581;DHT22;3324;50.796;7.228;2022-09-12T08:59:44;19.20;99.90
6581;DHT22;3324;50.796;7.228;2022-09-12T09:04:51;19.40;99.90
6581;DHT22;3324;50.796;7.228;2022-09-12T09:07:27;19.50;99.90
6581;DHT22;3324;50.796;7.228;2022-09-12T09:13:18;19.60;99.90
6581;DHT22;3324;50.796;7.228;2022-09-12T09:16:11;19.60;99.90
6581;DHT22;3324;50.796;7.228;2022-09-12T09:18:42;19.80;99.90
6581;DHT22;3324;50.796;7.228;2022-09-12T09:21:38;19.80;99.90
6581;DHT22;3324;50.796;7.228;2022-09-12T09:24:05;19.90;99.90
6581;DHT22;3324;50.796;7.228;2022-09-12T09:26:50;20.10;99.90
6581;DHT22;3324;50.796;7.228;2022-09-12T09:29:19;20.20;99.90
6581;DHT22;3324;50.796;7.228;2022-09-12T09:31:48;20.30;99.90
6581;DHT22;3324;50.796;7.228;2022-09-12T09:34:22;20.40;99.90
6581;DHT22;3324;50.796;7.228;2022-09-12T09:36:49;20.60;99.90
6581;DHT22;3324;50.796;7.228;2022-09-12T09:42:40;20.90;99.90
6581;DHT22;3324;50.796;7.228;2022-09-12T09:45:17;21.00;99.90
6581;DHT22;3324;50.796;7.228;2022-09-12T09:47:48;21.10;99.90
6581;DHT22;3324;50.796;7.228;2022-09-12T09:50:15;21.30;99.90
6581;DHT22;3324;50.796;7.228;2022-09-12T09:52:41;21.40;99.90
6581;DHT22;3324;50.796;7.228;2022-09-12T09:55:19;21.50;99.90
6581;DHT22;3324;50.796;7.228;2022-09-12T09:57:46;21.70;99.90
6581;DHT22;3324;50.796;7.228;2022-09-12T10:05:51;22.10;99.90
6581;DHT22;3324;50.796;7.228;2022-09-12T10:13:51;22.60;99.90
6581;DHT22;3324;50.796;7.228;2022-09-12T10:16:33;22.60;99.90
6581;DHT22;3324;50.796;7.228;2022-09-12T10:19:03;22.60;99.90
6581;DHT22;3324;50.796;7.228;2022-09-12T10:21:34;22.60;99.90
6581;DHT22;3324;50.796;7.228;2022-09-12T10:24:24;22.80;99.90
6581;DHT22;3324;50.796;7.228;2022-09-12T10:27:23;22.70;99.90
6581;DHT22;3324;50.796;7.228;2022-09-12T10:29:53;22.70;99.90
6581;DHT22;3324;50.796;7.228;2022-09-12T10:32:38;22.80;99.90
6581;DHT22;3324;50.796;7.228;2022-09-12T10:35:07;22.90;99.90
6581;DHT22;3324;50.796;7.228;2022-09-12T10:37:40;22.90;99.90
6581;DHT22;3324;50.796;7.228;2022-09-12T10:40:26;22.90;99.90
6581;DHT22;3324;50.796;7.228;2022-09-12T10:42:57;23.10;99.90
6581;DHT22;3324;50.796;7.228;2022-09-12T10:45:32;23.20;99.90
6581;DHT22;3324;50.796;7.228;2022-09-12T10:48:02;23.20;99.90
6581;DHT22;3324;50.796;7.228;2022-09-12T10:50:38;23.20;99.90
6581;DHT22;3324;50.796;7.228;2022-09-12T11:01:40;23.60;99.90
6581;DHT22;3324;50.796;7.228;2022-09-12T11:06:41;23.70;99.90
6581;DHT22;3324;50.796;7.228;2022-09-12T11:17:28;24.10;99.90
6581;DHT22;3324;50.796;7.228;2022-09-12T11:20:16;24.10;99.90
6581;DHT22;3324;50.796;7.228;2022-09-12T11:34:08;24.50;99.90
6581;DHT22;3324;50.796;7.228;2022-09-12T11:37:05;24.60;99.90
6581;DHT22;3324;50.796;7.228;2022-09-12T11:39:39;24.60;99.90
6581;DHT22;3324;50.796;7.228;2022-09-12T11:42:18;24.60;99.90
6581;DHT22;3324;50.796;7.228;2022-09-12T11:44:54;24.70;99.90
6581;DHT22;3324;50.796;7.228;2022-09-12T11:47:22;24.80;99.90
6581;DHT22;3324;50.796;7.228;2022-09-12T11:49:50;24.80;99.90
6581;DHT22;3324;50.796;7.228;2022-09-12T11:52:19;24.70;99.90
6581;DHT22;3324;50.796;7.228;2022-09-12T11:55:15;24.80;99.90
6581;DHT22;3324;50.796;7.228;2022-09-12T11:57:54;24.80;99.90
6581;DHT22;3324;50.796;7.228;2022-09-12T12:05:50;24.80;99.90
6581;DHT22;3324;50.796;7.228;2022-09-12T12:08:21;24.90;99.90
6581;DHT22;3324;50.796;7.228;2022-09-12T12:10:55;25.00;99.90
6581;DHT22;3324;50.796;7.228;2022-09-12T12:13:40;25.10;99.90
6581;DHT22;3324;50.796;7.228;2022-09-12T12:16:25;24.90;99.90
6581;DHT22;3324;50.796;7.228;2022-09-12T12:19:03;24.90;99.90
6581;DHT22;3324;50.796;7.228;2022-09-12T12:21:45;25.10;99.90
6581;DHT22;3324;50.796;7.228;2022-09-12T12:34:29;25.50;99.90
6581;DHT22;3324;50.796;7.228;2022-09-12T12:36:56;25.50;99.90
6581;DHT22;3324;50.796;7.228;2022-09-12T12:41:57;25.50;97.10
6581;DHT22;3324;50.796;7.228;2022-09-12T12:47:21;25.60;99.40
6581;DHT22;3324;50.796;7.228;2022-09-12T12:50:00;25.60;99.10
6581;DHT22;3324;50.796;7.228;2022-09-12T12:55:25;25.80;96.00
6581;DHT22;3324;50.796;7.228;2022-09-12T12:57:53;25.80;95.60
6581;DHT22;3324;50.796;7.228;2022-09-12T13:02:55;25.70;98.30
6581;DHT22;3324;50.796;7.228;2022-09-12T13:05:22;25.80;99.90
6581;DHT22;3324;50.796;7.228;2022-09-12T13:08:06;25.80;98.20
6581;DHT22;3324;50.796;7.228;2022-09-12T13:10:32;25.90;97.40
6581;DHT22;3324;50.796;7.228;2022-09-12T13:13:01;26.00;98.70
6581;DHT22;3324;50.796;7.228;2022-09-12T13:18:05;26.00;95.70
6581;DHT22;3324;50.796;7.228;2022-09-12T13:20:34;26.00;98.20
6581;DHT22;3324;50.796;7.228;2022-09-12T13:23:02;26.10;96.30
6581;DHT22;3324;50.796;7.228;2022-09-12T13:25:35;26.10;89.40
6581;DHT22;3324;50.796;7.228;2022-09-12T13:30:38;26.30;92.90
6581;DHT22;3324;50.796;7.228;2022-09-12T13:33:17;26.30;87.60
6581;DHT22;3324;50.796;7.228;2022-09-12T13:36:06;26.30;89.70
6581;DHT22;3324;50.796;7.228;2022-09-12T13:38:57;26.30;84.70
6581;DHT22;3324;50.796;7.228;2022-09-12T13:44:15;26.00;77.90
6581;DHT22;3324;50.796;7.228;2022-09-12T13:46:42;25.90;88.10
6581;DHT22;3324;50.796;7.228;2022-09-12T13:49:33;25.90;88.60
6581;DHT22;3324;50.796;7.228;2022-09-12T13:52:00;26.00;90.70
6581;DHT22;3324;50.796;7.228;2022-09-12T13:54:27;25.90;91.70
6581;DHT22;3324;50.796;7.228;2022-09-12T13:56:53;25.90;92.90
6581;DHT22;3324;50.796;7.228;2022-09-12T13:59:19;25.90;92.50
6581;DHT22;3324;50.796;7.228;2022-09-12T14:01:46;25.90;93.40
6581;DHT22;3324;50.796;7.228;2022-09-12T14:04:16;25.90;93.90
6581;DHT22;3324;50.796;7.228;2022-09-12T14:09:43;26.00;95.70
6581;DHT22;3324;50.796;7.228;2022-09-12T14:12:34;26.20;95.70
6581;DHT22;3324;50.796;7.228;2022-09-12T14:14:59;26.30;94.50
6581;DHT22;3324;50.796;7.228;2022-09-12T14:17:34;26.20;93.20
6581;DHT22;3324;50.796;7.228;2022-09-12T14:20:14;26.20;93.70
6581;DHT22;3324;50.796;7.228;2022-09-12T14:22:41;26.20;94.60
6581;DHT22;3324;50.796;7.228;2022-09-12T14:25:13;26.20;92.70
6581;DHT22;3324;50.796;7.228;2022-09-12T14:27:43;26.20;93.60
6581;DHT22;3324;50.796;7.228;2022-09-12T14:33:21;26.20;96.70
6581;DHT22;3324;50.796;7.228;2022-09-12T14:35:49;26.10;94.20
6581;DHT22;3324;50.796;7.228;2022-09-12T14:40:46;26.20;97.10
6581;DHT22;3324;50.796;7.228;2022-09-12T14:43:30;26.20;96.10
6581;DHT22;3324;50.796;7.228;2022-09-12T14:46:01;26.20;95.70
6581;DHT22;3324;50.796;7.228;2022-09-12T14:48:30;26.10;95.40
6581;DHT22;3324;50.796;7.228;2022-09-12T14:50:57;26.10;97.20
6581;DHT22;3324;50.796;7.228;2022-09-12T14:53:36;26.10;95.70
6581;DHT22;3324;50.796;7.228;2022-09-12T14:56:06;26.00;94.70
6581;DHT22;3324;50.796;7.228;2022-09-12T14:58:33;25.90;94.30
6581;DHT22;3324;50.796;7.228;2022-09-12T15:01:20;25.90;96.10
6581;DHT22;3324;50.796;7.228;2022-09-12T15:06:30;25.80;95.70
6581;DHT22;3324;50.796;7.228;2022-09-12T15:08:59;25.70;95.20
6581;DHT22;3324;50.796;7.228;2022-09-12T15:11:26;25.60;96.20
6581;DHT22;3324;50.796;7.228;2022-09-12T15:13:52;25.50;97.30
6581;DHT22;3324;50.796;7.228;2022-09-12T15:16:17;25.40;97.80
6581;DHT22;3324;50.796;7.228;2022-09-12T15:18:43;25.40;99.50
6581;DHT22;3324;50.796;7.228;2022-09-12T15:21:12;25.40;98.80
6581;DHT22;3324;50.796;7.228;2022-09-12T15:23:46;25.40;99.00
6581;DHT22;3324;50.796;7.228;2022-09-12T15:26:17;25.30;99.80
6581;DHT22;3324;50.796;7.228;2022-09-12T15:28:43;25.30;99.10
6581;DHT22;3324;50.796;7.228;2022-09-12T15:33:38;25.30;98.60
6581;DHT22;3324;50.796;7.228;2022-09-12T15:36:12;25.20;98.10
6581;DHT22;3324;50.796;7.228;2022-09-12T15:38:38;25.20;98.30
6581;DHT22;3324;50.796;7.228;2022-09-12T15:41:12;25.20;98.50
6581;DHT22;3324;50.796;7.228;2022-09-12T15:43:39;25.10;98.60
6581;DHT22;3324;50.796;7.228;2022-09-12T15:46:05;25.00;99.30
6581;DHT22;3324;50.796;7.228;2022-09-12T15:48:31;25.00;99.40
6581;DHT22;3324;50.796;7.228;2022-09-12T15:50:57;24.90;99.90
6581;DHT22;3324;50.796;7.228;2022-09-12T15:53:26;24.90;99.90
6581;DHT22;3324;50.796;7.228;2022-09-12T15:55:52;24.80;99.80
6581;DHT22;3324;50.796;7.228;2022-09-12T15:58:18;24.70;99.90
6581;DHT22;3324;50.796;7.228;2022-09-12T16:00:43;24.60;99.90
6581;DHT22;3324;50.796;7.228;2022-09-12T16:03:23;24.60;99.90
6581;DHT22;3324;50.796;7.228;2022-09-12T16:05:54;24.60;99.90
6581;DHT22;3324;50.796;7.228;2022-09-12T16:08:20;24.50;99.90
6581;DHT22;3324;50.796;7.228;2022-09-12T16:10:50;24.50;99.90
6581;DHT22;3324;50.796;7.228;2022-09-12T16:13:17;24.40;99.90
6581;DHT22;3324;50.796;7.228;2022-09-12T16:15:44;24.40;99.90
6581;DHT22;3324;50.796;7.228;2022-09-12T16:18:09;24.40;99.90
6581;DHT22;3324;50.796;7.228;2022-09-12T16:20:38;24.30;99.90
6581;DHT22;3324;50.796;7.228;2022-09-12T16:23:04;24.30;99.90
6581;DHT22;3324;50.796;7.228;2022-09-12T16:25:29;24.30;99.90
6581;DHT22;3324;50.796;7.228;2022-09-12T16:27:55;24.20;99.90
6581;DHT22;3324;50.796;7.228;2022-09-12T16:30:21;24.20;99.90
6581;DHT22;3324;50.796;7.228;2022-09-12T16:32:46;24.20;99.90
6581;DHT22;3324;50.796;7.228;2022-09-12T16:35:12;24.10;99.90
6581;DHT22;3324;50.796;7.228;2022-09-12T16:37:37;24.10;99.90
6581;DHT22;3324;50.796;7.228;2022-09-12T16:40:04;24.00;99.90
6581;DHT22;3324;50.796;7.228;2022-09-12T16:42:30;24.00;99.90
6581;DHT22;3324;50.796;7.228;2022-09-12T16:44:56;24.00;99.90
6581;DHT22;3324;50.796;7.228;2022-09-12T16:47:22;24.00;99.90
6581;DHT22;3324;50.796;7.228;2022-09-12T16:49:47;24.00;99.90
6581;DHT22;3324;50.796;7.228;2022-09-12T16:52:13;23.90;99.90
6581;DHT22;3324;50.796;7.228;2022-09-12T16:54:41;23.90;99.90
6581;DHT22;3324;50.796;7.228;2022-09-12T16:57:08;23.80;99.90
6581;DHT22;3324;50.796;7.228;2022-09-12T16:59:34;23.80;99.90
6581;DHT22;3324;50.796;7.228;2022-09-12T17:02:00;23.70;99.90
6581;DHT22;3324;50.796;7.228;2022-09-12T17:04:26;23.70;99.90
6581;DHT22;3324;50.796;7.228;2022-09-12T17:06:52;23.70;99.90
6581;DHT22;3324;50.796;7.228;2022-09-12T17:09:18;23.60;99.90
6581;DHT22;3324;50.796;7.228;2022-09-12T17:11:45;23.70;99.90
6581;DHT22;3324;50.796;7.228;2022-09-12T17:14:12;23.50;99.90
6581;DHT22;3324;50.796;7.228;2022-09-12T17:16:40;23.50;99.90
6581;DHT22;3324;50.796;7.228;2022-09-12T17:19:07;23.50;99.90
6581;DHT22;3324;50.796;7.228;2022-09-12T17:21:33;23.50;99.90
6581;DHT22;3324;50.796;7.228;2022-09-12T17:23:59;23.40;99.90
6581;DHT22;3324;50.796;7.228;2022-09-12T17:26:25;23.50;99.90
6581;DHT22;3324;50.796;7.228;2022-09-12T17:28:51;23.40;99.90
6581;DHT22;3324;50.796;7.228;2022-09-12T17:31:16;23.30;99.90
6581;DHT22;3324;50.796;7.228;2022-09-12T17:33:42;23.30;99.90
6581;DHT22;3324;50.796;7.228;2022-09-12T17:36:17;23.20;99.90
6581;DHT22;3324;50.796;7.228;2022-09-12T17:38:44;23.20;99.90
6581;DHT22;3324;50.796;7.228;2022-09-12T17:41:30;23.10;99.90
6581;DHT22;3324;50.796;7.228;2022-09-12T17:43:57;23.00;99.90
6581;DHT22;3324;50.796;7.228;2022-09-12T17:46:28;23.00;99.90
6581;DHT22;3324;50.796;7.228;2022-09-12T17:48:56;22.90;99.90
6581;DHT22;3324;50.796;7.228;2022-09-12T17:51:24;22.80;99.90
6581;DHT22;3324;50.796;7.228;2022-09-12T17:54:04;22.70;99.90
6581;DHT22;3324;50.796;7.228;2022-09-12T17:56:31;22.60;99.90
6581;DHT22;3324;50.796;7.228;2022-09-12T17:58:58;22.60;99.90
6581;DHT22;3324;50.796;7.228;2022-09-12T18:01:25;22.50;99.90
6581;DHT22;3324;50.796;7.228;2022-09-12T18:04:09;22.50;99.90
6581;DHT22;3324;50.796;7.228;2022-09-12T18:06:38;22.40;99.90
6581;DHT22;3324;50.796;7.228;2022-09-12T18:09:07;22.40;99.90
6581;DHT22;3324;50.796;7.228;2022-09-12T18:11:33;22.30;99.90
6581;DHT22;3324;50.796;7.228;2022-09-12T18:13:59;22.30;99.90
6581;DHT22;3324;50.796;7.228;2022-09-12T18:16:25;22.20;99.90
6581;DHT22;3324;50.796;7.228;2022-09-12T18:18:51;22.10;99.90
6581;DHT22;3324;50.796;7.228;2022-09-12T18:21:17;22.00;99.90
6581;DHT22;3324;50.796;7.228;2022-09-12T18:23:44;21.90;99.90
6581;DHT22;3324;50.796;7.228;2022-09-12T18:26:10;21.80;99.90
6581;DHT22;3324;50.796;7.228;2022-09-12T18:28:40;21.70;99.90
6581;DHT22;3324;50.796;7.228;2022-09-12T18:31:17;21.70;99.90
6581;DHT22;3324;50.796;7.228;2022-09-12T18:33:43;21.60;99.90
6581;DHT22;3324;50.796;7.228;2022-09-12T18:36:11;21.60;99.90
6581;DHT22;3324;50.796;7.228;2022-09-12T18:38:38;21.50;99.90
6581;DHT22;3324;50.796;7.228;2022-09-12T18:41:05;21.40;99.90
6581;DHT22;3324;50.796;7.228;2022-09-12T18:43:32;21.40;99.90
6581;DHT22;3324;50.796;7.228;2022-09-12T18:46:05;21.30;99.90
6581;DHT22;3324;50.796;7.228;2022-09-12T18:48:32;21.20;99.90